createdAt,value
2023-03-26T00:01:58.498Z,99872.59
2023-03-26T00:05:01.036Z,99876.59
2023-03-26T00:08:03.726Z,99883.13
2023-03-26T00:11:08.034Z,99863.22
2023-03-26T00:14:14.187Z,99848.09
2023-03-26T00:17:17.209Z,99833.34
2023-03-26T00:20:20.070Z,99849.09
2023-03-26T00:23:22.583Z,99859.47
2023-03-26T00:26:25.837Z,99856.69
2023-03-26T00:29:28.299Z,99841.34
2023-03-26T00:32:31.486Z,99856.88
2023-03-26T00:35:37.970Z,99859.88
2023-03-26T00:38:41.817Z,99853.28
2023-03-26T00:41:44.334Z,99847.31
2023-03-26T00:44:47.181Z,99856.09
2023-03-26T00:47:49.921Z,99842.75
2023-03-26T00:50:52.400Z,99856.28
2023-03-26T00:53:55.880Z,99833.53
2023-03-26T00:56:58.670Z,99852.06
2023-03-26T01:00:14.997Z,99835.09
2023-03-26T01:03:27.683Z,99844.44
2023-03-26T01:06:35.519Z,99830.16
2023-03-26T01:09:45.169Z,99823.16
2023-03-26T01:12:48.009Z,99827.53
2023-03-26T01:15:51.384Z,99834.34
2023-03-26T01:18:54.685Z,99820.25
2023-03-26T01:21:58.341Z,99811.91
2023-03-26T01:25:00.813Z,99836.16
2023-03-26T01:28:08.940Z,99834.97
2023-03-26T01:31:29.757Z,99835.16
2023-03-26T01:34:47.092Z,99831.53
2023-03-26T01:38:23.072Z,99848.09
2023-03-26T01:41:33.989Z,99839.34
2023-03-26T01:44:46.434Z,99838.53
2023-03-26T01:47:49.372Z,99849.28
2023-03-26T01:50:56.320Z,99855.25
2023-03-26T01:54:02.866Z,99827.94
2023-03-26T01:57:21.008Z,99827.59
2023-03-26T02:00:33.650Z,99820.38
2023-03-26T02:03:44.993Z,99834.13
2023-03-26T02:07:06.131Z,99835.53
2023-03-26T02:10:29.748Z,99842.06
2023-03-26T02:13:32.671Z,99858.47
2023-03-26T02:16:35.386Z,99857.81
2023-03-26T02:19:42.392Z,99860.03
2023-03-26T02:22:48.494Z,99864.28
2023-03-26T02:25:53.973Z,99846.94
2023-03-26T02:28:57.634Z,99867.84
2023-03-26T02:32:02.308Z,99854.53
2023-03-26T02:35:06.867Z,99853.75
2023-03-26T02:38:10.524Z,99838.22
2023-03-26T02:41:13.431Z,99836.59
2023-03-26T02:44:29.713Z,99837.38
2023-03-26T02:47:35.201Z,99835.19
2023-03-26T02:51:04.682Z,99841.94
2023-03-26T02:54:25.534Z,99833.56
2023-03-26T02:57:38.195Z,99818.25
2023-03-26T03:00:40.741Z,99831.78
2023-03-26T03:04:04.401Z,99828.00
2023-03-26T03:07:17.991Z,99843.91
2023-03-26T03:10:22.088Z,99830.13
2023-03-26T03:13:38.006Z,99852.19
2023-03-26T03:16:41.243Z,99826.09
2023-03-26T03:19:45.926Z,99835.00
2023-03-26T03:22:49.066Z,99833.00
2023-03-26T03:25:52.682Z,99848.09
2023-03-26T03:28:57.626Z,99847.84
2023-03-26T03:32:00.506Z,99832.06
2023-03-26T03:35:13.686Z,99814.25
2023-03-26T03:38:19.337Z,99820.63
2023-03-26T03:41:24.779Z,99836.13
2023-03-26T03:44:27.353Z,99837.59
2023-03-26T03:47:30.044Z,99827.56
2023-03-26T03:50:34.382Z,99836.31
2023-03-26T03:53:56.673Z,99857.28
2023-03-26T03:57:18.863Z,99851.84
2023-03-26T04:00:38.365Z,99848.88
2023-03-26T04:04:00.895Z,99834.56
2023-03-26T04:07:17.594Z,99842.66
2023-03-26T04:10:38.855Z,99847.00
2023-03-26T04:13:47.294Z,99855.88
2023-03-26T04:17:02.271Z,99859.81
2023-03-26T04:20:08.798Z,99847.41
2023-03-26T04:23:14.264Z,99863.44
2023-03-26T04:26:21.030Z,99857.31
2023-03-26T04:29:49.667Z,99848.56
2023-03-26T04:32:58.844Z,99865.28
2023-03-26T04:36:04.340Z,99838.38
2023-03-26T04:39:13.332Z,99859.00
2023-03-26T04:42:37.724Z,99852.63
2023-03-26T04:46:03.427Z,99859.47
2023-03-26T04:49:10.596Z,99865.03
2023-03-26T04:52:15.028Z,99842.78
2023-03-26T04:55:45.299Z,99849.97
2023-03-26T04:59:00.852Z,99860.72
2023-03-26T05:02:06.566Z,99849.47
2023-03-26T05:05:18.912Z,99845.16
2023-03-26T05:08:21.375Z,99845.81
2023-03-26T05:11:24.265Z,99864.97
2023-03-26T05:14:26.955Z,99850.06
2023-03-26T05:17:31.068Z,99847.50
2023-03-26T05:20:35.995Z,99856.06
2023-03-26T05:23:41.464Z,99855.69
2023-03-26T05:26:55.080Z,99849.75
2023-03-26T05:30:03.751Z,99838.19
2023-03-26T05:33:12.433Z,99845.56
2023-03-26T05:36:28.317Z,99855.06
2023-03-26T05:39:46.985Z,99844.47
2023-03-26T05:43:10.288Z,99839.94
2023-03-26T05:46:23.962Z,99852.66
2023-03-26T05:49:26.733Z,99857.00
2023-03-26T05:52:29.998Z,99849.34
2023-03-26T05:56:04.995Z,99844.06
2023-03-26T05:59:42.698Z,99846.84
2023-03-26T06:03:16.570Z,99826.47
2023-03-26T06:06:44.930Z,99833.00
2023-03-26T06:09:47.670Z,99839.03
2023-03-26T06:12:50.087Z,99833.97
2023-03-26T06:15:53.440Z,99833.50
2023-03-26T06:19:16.475Z,99834.19
2023-03-26T06:22:41.940Z,99843.16
2023-03-26T06:25:56.239Z,99827.38
2023-03-26T06:29:21.945Z,99834.00
2023-03-26T06:32:24.806Z,99837.88
2023-03-26T06:35:36.444Z,99838.16
2023-03-26T06:38:39.497Z,99831.66
2023-03-26T06:41:43.183Z,99825.59
2023-03-26T06:45:05.017Z,99842.47
2023-03-26T06:48:10.261Z,99838.75
2023-03-26T06:51:26.660Z,99832.72
2023-03-26T06:54:49.020Z,99841.78
2023-03-26T06:58:12.863Z,99833.41
2023-03-26T07:01:41.589Z,99861.28
2023-03-26T07:05:02.902Z,99850.75
2023-03-26T07:08:25.861Z,99834.78
2023-03-26T07:11:47.946Z,99827.06
2023-03-26T07:15:27.565Z,99835.59
2023-03-26T07:18:48.631Z,99836.69
2023-03-26T07:21:56.199Z,99820.81
2023-03-26T07:25:19.451Z,99831.13
2023-03-26T07:28:41.771Z,99814.38
2023-03-26T07:32:14.046Z,99832.25
2023-03-26T07:35:56.864Z,99822.91
2023-03-26T07:39:38.156Z,99832.84
2023-03-26T07:43:41.157Z,99834.19
2023-03-26T07:47:08.842Z,99823.81
2023-03-26T07:50:36.308Z,99841.00
2023-03-26T07:54:00.522Z,99843.88
2023-03-26T07:57:36.777Z,99846.88
2023-03-26T08:01:22.100Z,99835.50
2023-03-26T08:05:01.446Z,99842.16
2023-03-26T08:08:48.102Z,99832.81
2023-03-26T08:12:30.007Z,99834.47
2023-03-26T08:15:39.276Z,99830.81
2023-03-26T08:19:00.095Z,99822.47
2023-03-26T08:22:12.099Z,99837.91
2023-03-26T08:25:27.649Z,99844.31
2023-03-26T08:28:43.569Z,99819.81
2023-03-26T08:31:49.191Z,99834.56
2023-03-26T08:34:52.805Z,99829.19
2023-03-26T08:37:55.425Z,99836.41
2023-03-26T08:41:04.769Z,99848.06
2023-03-26T08:44:51.642Z,99843.78
2023-03-26T08:48:29.907Z,99842.38
2023-03-26T08:51:41.850Z,99838.78
2023-03-26T08:55:22.063Z,99835.06
2023-03-26T08:58:53.679Z,99825.94
2023-03-26T09:02:19.224Z,99826.97
2023-03-26T09:05:54.906Z,99813.41
2023-03-26T09:09:21.152Z,99828.97
2023-03-26T09:12:40.367Z,99810.16
2023-03-26T09:15:51.403Z,99809.09
2023-03-26T09:19:31.601Z,99804.31
2023-03-26T09:22:56.062Z,99813.56
2023-03-26T09:26:01.746Z,99795.53
2023-03-26T09:29:33.740Z,99806.94
2023-03-26T09:32:51.852Z,99809.06
2023-03-26T09:36:36.307Z,99820.81
2023-03-26T09:40:11.420Z,99820.72
2023-03-26T09:43:43.086Z,99824.13
2023-03-26T09:47:13.422Z,99818.03
2023-03-26T09:50:15.952Z,99817.63
2023-03-26T09:53:24.196Z,99822.16
2023-03-26T09:56:54.136Z,99801.91
2023-03-26T10:00:16.384Z,99791.38
2023-03-26T10:03:49.695Z,99811.56
2023-03-26T10:07:17.597Z,99778.13
2023-03-26T10:10:42.253Z,99776.41
2023-03-26T10:13:54.075Z,99781.13
2023-03-26T10:17:28.464Z,99762.59
2023-03-26T10:20:41.265Z,99752.56
2023-03-26T10:24:09.195Z,99761.31
2023-03-26T10:27:31.159Z,99753.66
2023-03-26T10:31:06.648Z,99742.19
2023-03-26T10:34:46.946Z,99725.63
2023-03-26T10:38:05.301Z,99719.47
2023-03-26T10:41:28.128Z,99707.72
2023-03-26T10:45:12.960Z,99722.25
2023-03-26T10:48:43.084Z,99708.56
2023-03-26T10:52:44.333Z,99705.44
2023-03-26T10:55:54.699Z,99694.13
2023-03-26T10:58:57.764Z,99687.84
2023-03-26T11:02:30.541Z,99693.19
2023-03-26T11:05:58.937Z,99704.78
2023-03-26T11:09:04.168Z,99684.84
2023-03-26T11:12:28.254Z,99670.19
2023-03-26T11:15:39.383Z,99654.56
2023-03-26T11:18:52.053Z,99667.16
2023-03-26T11:22:00.241Z,99652.72
2023-03-26T11:25:29.043Z,99656.56
2023-03-26T11:28:31.730Z,99649.03
2023-03-26T11:31:58.871Z,99640.72
2023-03-26T11:35:09.206Z,99632.66
2023-03-26T11:38:23.632Z,99623.44
2023-03-26T11:41:28.704Z,99606.88
2023-03-26T11:44:55.178Z,99606.91
2023-03-26T11:48:22.395Z,99573.94
2023-03-26T11:51:41.961Z,99578.28
2023-03-26T11:54:48.388Z,99579.97
2023-03-26T11:57:55.904Z,99563.34
2023-03-26T12:00:59.143Z,99564.69
2023-03-26T12:04:13.677Z,99553.31
2023-03-26T12:07:30.090Z,99565.47
2023-03-26T12:10:38.256Z,99547.31
2023-03-26T12:13:50.717Z,99535.47
2023-03-26T12:17:14.335Z,99544.94
2023-03-26T12:20:26.344Z,99538.28
2023-03-26T12:24:02.460Z,99538.09
2023-03-26T12:27:28.439Z,99531.56
2023-03-26T12:30:42.624Z,99522.19
2023-03-26T12:34:06.379Z,99506.53
2023-03-26T12:37:36.834Z,99493.19
2023-03-26T12:40:40.306Z,99515.50
2023-03-26T12:44:54.605Z,99474.41
2023-03-26T12:48:00.605Z,99483.84
2023-03-26T12:51:31.203Z,99483.94
2023-03-26T12:54:58.700Z,99485.72
2023-03-26T12:58:16.767Z,99473.56
2023-03-26T13:01:43.592Z,99481.47
2023-03-26T13:05:05.788Z,99468.97
2023-03-26T13:08:15.236Z,99477.28
2023-03-26T13:11:41.069Z,99461.16
2023-03-26T13:14:49.836Z,99448.50
2023-03-26T13:17:58.607Z,99404.94
2023-03-26T13:21:07.422Z,99399.66
2023-03-26T13:24:23.306Z,99426.00
2023-03-26T13:27:41.945Z,99425.09
2023-03-26T13:31:39.075Z,99416.28
2023-03-26T13:35:14.096Z,99392.53
2023-03-26T13:38:58.530Z,99403.53
2023-03-26T13:42:08.017Z,99396.81
2023-03-26T13:45:28.874Z,99395.91
2023-03-26T13:48:42.384Z,99383.69
2023-03-26T13:52:01.142Z,99396.31
2023-03-26T13:55:22.311Z,99380.50
2023-03-26T13:58:42.403Z,99368.00
2023-03-26T14:01:57.085Z,99366.78
2023-03-26T14:05:12.364Z,99342.53
2023-03-26T14:08:41.069Z,99347.75
2023-03-26T14:12:07.129Z,99344.25
2023-03-26T14:15:49.605Z,99344.09
2023-03-26T14:19:33.838Z,99343.84
2023-03-26T14:22:51.506Z,99339.66
2023-03-26T14:26:28.480Z,99326.31
2023-03-26T14:29:56.666Z,99331.63
2023-03-26T14:33:28.134Z,99334.53
2023-03-26T14:36:43.365Z,99322.44
2023-03-26T14:40:27.054Z,99309.13
2023-03-26T14:43:51.653Z,99309.19
2023-03-26T14:47:09.607Z,99299.56
2023-03-26T14:50:46.709Z,99298.84
2023-03-26T14:53:57.044Z,99286.13
2023-03-26T14:57:36.564Z,99285.56
2023-03-26T15:00:44.743Z,99273.81
2023-03-26T15:04:05.681Z,99266.19
2023-03-26T15:07:45.533Z,99264.34
2023-03-26T15:11:13.702Z,99231.63
2023-03-26T15:14:35.428Z,99248.63
2023-03-26T15:18:13.863Z,99246.28
2023-03-26T15:21:40.977Z,99249.13
2023-03-26T15:25:02.809Z,99244.59
2023-03-26T15:28:33.606Z,99241.28
2023-03-26T15:32:03.111Z,99208.00
2023-03-26T15:35:25.701Z,99212.88
2023-03-26T15:38:38.576Z,99205.91
2023-03-26T15:42:14.698Z,99219.84
2023-03-26T15:45:36.962Z,99223.28
2023-03-26T15:49:02.295Z,99221.56
2023-03-26T15:52:20.358Z,99201.50
2023-03-26T15:55:36.663Z,99208.53
2023-03-26T15:59:16.331Z,99207.53
2023-03-26T16:02:54.712Z,99189.22
2023-03-26T16:06:20.848Z,99184.25
2023-03-26T16:09:32.648Z,99180.88
2023-03-26T16:12:45.987Z,99167.53
2023-03-26T16:16:11.331Z,99149.72
2023-03-26T16:19:20.288Z,99161.03
2023-03-26T16:22:32.494Z,99154.50
2023-03-26T16:26:00.897Z,99142.72
2023-03-26T16:29:19.433Z,99136.72
2023-03-26T16:32:35.556Z,99129.16
2023-03-26T16:35:48.092Z,99131.25
2023-03-26T16:39:15.851Z,99121.31
2023-03-26T16:42:31.813Z,99137.03
2023-03-26T16:45:57.295Z,99144.38
2023-03-26T16:49:25.294Z,99126.53
2023-03-26T16:52:50.613Z,99145.94
2023-03-26T16:55:59.908Z,99132.81
2023-03-26T16:59:09.348Z,99140.66
2023-03-26T17:02:26.447Z,99134.91
2023-03-26T17:05:44.942Z,99113.16
2023-03-26T17:09:01.391Z,99138.81
2023-03-26T17:12:30.075Z,99154.25
2023-03-26T17:15:48.831Z,99156.88
2023-03-26T17:18:54.478Z,99147.16
2023-03-26T17:22:04.269Z,99161.28
2023-03-26T17:25:29.275Z,99129.53
2023-03-26T17:29:17.104Z,99158.59
2023-03-26T17:32:21.611Z,99150.72
2023-03-26T17:35:36.790Z,99156.44
2023-03-26T17:38:40.586Z,99144.13
2023-03-26T17:41:55.483Z,99150.94
2023-03-26T17:44:59.368Z,99153.22
2023-03-26T17:48:25.370Z,99147.91
2023-03-26T17:51:28.140Z,99159.38
2023-03-26T17:54:49.198Z,99152.59
2023-03-26T17:57:57.175Z,99152.59
2023-03-26T18:01:07.058Z,99158.59
2023-03-26T18:04:21.268Z,99157.81
2023-03-26T18:07:57.997Z,99164.56
2023-03-26T18:11:23.837Z,99158.84
2023-03-26T18:14:29.625Z,99158.06
2023-03-26T18:17:40.282Z,99141.34
2023-03-26T18:20:47.246Z,99141.88
2023-03-26T18:23:50.945Z,99132.75
2023-03-26T18:26:58.537Z,99131.94
2023-03-26T18:30:13.608Z,99125.09
2023-03-26T18:33:20.165Z,99118.31
2023-03-26T18:36:25.924Z,99119.34
2023-03-26T18:39:29.003Z,99117.25
2023-03-26T18:42:32.961Z,99121.97
2023-03-26T18:45:40.493Z,99120.13
2023-03-26T18:48:44.352Z,99111.72
2023-03-26T18:51:56.762Z,99108.09
2023-03-26T18:55:03.250Z,99100.44
2023-03-26T18:58:31.253Z,99090.78
2023-03-26T19:01:36.636Z,99082.41
2023-03-26T19:04:45.326Z,99081.84
2023-03-26T19:07:50.235Z,99077.44
2023-03-26T19:10:54.862Z,99071.66
2023-03-26T19:14:07.815Z,99057.00
2023-03-26T19:17:12.055Z,99048.56
2023-03-26T19:20:46.185Z,99056.19
2023-03-26T19:23:49.616Z,99045.97
2023-03-26T19:26:53.016Z,99037.56
2023-03-26T19:29:56.260Z,99028.41
2023-03-26T19:33:13.486Z,99022.94
2023-03-26T19:36:29.704Z,99020.81
2023-03-26T19:39:38.152Z,99028.09
2023-03-26T19:42:44.735Z,99005.34
2023-03-26T19:45:59.749Z,99002.22
2023-03-26T19:49:04.290Z,99004.31
2023-03-26T19:52:17.451Z,98982.09
2023-03-26T19:55:27.410Z,98986.78
2023-03-26T19:58:31.130Z,98992.53
2023-03-26T20:01:34.004Z,98982.38
2023-03-26T20:04:36.834Z,98937.88
2023-03-26T20:07:41.367Z,98970.13
2023-03-26T20:10:44.350Z,98935.34
2023-03-26T20:13:47.813Z,98949.19
2023-03-26T20:16:50.261Z,98946.03
2023-03-26T20:19:54.271Z,98942.63
2023-03-26T20:22:56.978Z,98923.25
2023-03-26T20:25:59.671Z,98937.34
2023-03-26T20:29:04.036Z,98938.13
2023-03-26T20:32:19.159Z,98937.34
2023-03-26T20:35:36.204Z,98919.50
2023-03-26T20:38:40.339Z,98926.66
2023-03-26T20:41:50.179Z,98921.88
2023-03-26T20:44:53.501Z,98917.94
2023-03-26T20:47:56.113Z,98909.59
2023-03-26T20:50:58.903Z,98902.28
2023-03-26T20:54:02.255Z,98893.16
2023-03-26T20:57:05.540Z,98906.22
2023-03-26T21:00:22.141Z,98894.50
2023-03-26T21:03:24.636Z,98896.81
2023-03-26T21:06:27.310Z,98892.84
2023-03-26T21:09:34.143Z,98871.63
2023-03-26T21:12:45.621Z,98883.69
2023-03-26T21:15:49.064Z,98877.88
2023-03-26T21:18:51.822Z,98871.09
2023-03-26T21:22:19.941Z,98897.50
2023-03-26T21:26:01.550Z,98907.69
2023-03-26T21:29:04.150Z,98924.97
2023-03-26T21:32:07.177Z,98926.53
2023-03-26T21:35:10.603Z,98916.31
2023-03-26T21:38:13.605Z,98927.06
2023-03-26T21:41:36.006Z,98926.94
2023-03-26T21:44:40.162Z,98917.25
2023-03-26T21:47:43.549Z,98914.88
2023-03-26T21:50:47.635Z,98918.75
2023-03-26T21:53:50.647Z,98917.06
2023-03-26T21:57:00.061Z,98905.22
2023-03-26T22:00:15.291Z,98902.00
2023-03-26T22:03:31.922Z,98886.53
2023-03-26T22:06:43.786Z,98893.59
2023-03-26T22:09:46.585Z,98893.34
2023-03-26T22:12:49.379Z,98903.56
2023-03-26T22:15:51.987Z,98882.38
2023-03-26T22:18:54.606Z,98894.66
2023-03-26T22:21:58.400Z,98889.88
2023-03-26T22:25:01.209Z,98885.28
2023-03-26T22:28:04.463Z,98869.16
2023-03-26T22:31:08.675Z,98882.63
2023-03-26T22:34:11.760Z,98877.25
2023-03-26T22:37:14.456Z,98883.34
2023-03-26T22:40:17.972Z,98875.00
2023-03-26T22:43:20.572Z,98850.16
2023-03-26T22:46:23.700Z,98839.63
2023-03-26T22:49:27.462Z,98846.56
2023-03-26T22:52:30.484Z,98854.63
2023-03-26T22:55:33.130Z,98860.31
2023-03-26T22:58:35.588Z,98847.03
2023-03-26T23:01:38.128Z,98846.56
2023-03-26T23:04:42.653Z,98831.94
2023-03-26T23:07:46.188Z,98836.53
2023-03-26T23:10:48.770Z,98838.16
2023-03-26T23:13:51.814Z,98827.41
2023-03-26T23:16:55.042Z,98838.81
2023-03-26T23:19:57.531Z,98813.13
2023-03-26T23:23:01.223Z,98830.25
2023-03-26T23:26:04.742Z,98825.22
2023-03-26T23:29:07.506Z,98807.97
2023-03-26T23:32:23.783Z,98820.31
2023-03-26T23:35:27.813Z,98803.47
2023-03-26T23:38:44.040Z,98815.28
2023-03-26T23:41:47.145Z,98801.69
2023-03-26T23:44:49.653Z,98790.13
2023-03-26T23:47:52.191Z,98797.69
2023-03-26T23:51:03.178Z,98785.44
2023-03-26T23:54:08.760Z,98778.13
2023-03-26T23:57:11.694Z,98787.47
